Time;durP1;ratioP1;P1;durP2;ratioP2;P2;SDS_P1;SDS_P2;PMS_P1;PMS_P2;Temp;Humidity;BMP_temperature;BMP_pressure;BME280_temperature;BME280_humidity;BME280_pressure;Samples;Min_cycle;Max_cycle;Signal;HPM_P1;HPM_P2
2023/10/15 00:00:45;;;;;;;7.95;3.50;;;;;;;17.24;85.50;100444.88;5050107;28;20485;-78
2023/10/15 00:03:11;;;;;;;11.23;4.38;;;;;;;17.13;85.78;100412.59;5050178;28;20045;-78
2023/10/15 00:05:36;;;;;;;6.40;3.60;;;;;;;17.17;86.02;100424.84;5050546;28;20036;-79
2023/10/15 00:08:02;;;;;;;12.18;3.53;;;;;;;17.10;86.45;100411.09;5050157;28;20021;-78
2023/10/15 00:10:30;;;;;;;10.02;3.92;;;;;;;17.30;86.21;100434.16;5050397;28;20466;-78
2023/10/15 00:12:57;;;;;;;13.82;3.70;;;;;;;17.28;86.37;100425.31;5050696;28;20025;-77
2023/10/15 00:15:25;;;;;;;8.02;4.25;;;;;;;17.27;86.25;100418.22;5050123;28;20029;-77
2023/10/15 00:17:59;;;;;;;9.88;4.35;;;;;;;17.17;86.51;100403.94;5049897;28;20385;-78
2023/10/15 00:20:31;;;;;;;12.80;4.57;;;;;;;17.19;87.02;100406.47;5051251;28;20029;-79
2023/10/15 00:22:58;;;;;;;14.05;4.78;;;;;;;17.30;86.93;100412.41;5050235;28;20089;-76
2023/10/15 00:25:24;;;;;;;19.45;5.05;;;;;;;17.28;87.23;100400.84;5050381;28;20067;-77
2023/10/15 00:27:54;;;;;;;14.20;4.70;;;;;;;17.17;87.42;100384.91;5050304;28;20025;-77
2023/10/15 00:30:21;;;;;;;11.80;4.25;;;;;;;17.13;87.45;100360.97;5048877;28;20056;-77
2023/10/15 00:32:52;;;;;;;16.05;4.68;;;;;;;17.14;87.68;100359.97;5049884;28;20028;-78
2023/10/15 00:35:20;;;;;;;22.75;5.60;;;;;;;17.27;87.98;100377.44;5049757;28;20520;-78
2023/10/15 00:37:56;;;;;;;15.57;3.92;;;;;;;17.32;87.75;100391.34;5051738;28;20017;-78
2023/10/15 00:40:25;;;;;;;22.63;5.18;;;;;;;17.29;87.81;100379.97;5049457;28;20083;-78
2023/10/15 00:42:52;;;;;;;9.50;4.00;;;;;;;17.30;88.04;100387.97;5049480;28;20029;-78
2023/10/15 00:45:19;;;;;;;18.55;4.75;;;;;;;17.30;87.78;100381.66;5049566;28;20470;-77
2023/10/15 00:48:07;;;;;;;12.05;4.13;;;;;;;17.26;87.93;100370.28;5049768;28;20033;-78
2023/10/15 00:50:38;;;;;;;9.90;3.80;;;;;;;17.25;88.23;100374.03;5049739;28;20071;-77
2023/10/15 00:53:07;;;;;;;10.55;3.72;;;;;;;17.25;88.21;100371.31;5049515;28;20493;-76
2023/10/15 00:55:36;;;;;;;17.08;4.18;;;;;;;17.29;88.40;100375.38;5049808;28;20091;-78
2023/10/15 00:58:08;;;;;;;23.30;5.15;;;;;;;17.12;88.35;100353.84;5049766;28;20025;-78
2023/10/15 01:03:25;;;;;;;17.02;4.60;;;;;;;17.23;88.57;100365.19;5049557;28;20033;-78
2023/10/15 01:05:54;;;;;;;15.18;4.00;;;;;;;17.02;88.09;100328.75;5049101;28;20033;-79
2023/10/15 01:08:26;;;;;;;15.82;3.97;;;;;;;17.26;88.25;100367.56;5049062;28;20072;-78
2023/10/15 01:11:12;;;;;;;11.05;4.82;;;;;;;17.23;88.20;100370.63;5049728;28;20033;-79
2023/10/15 01:13:38;;;;;;;18.40;4.40;;;;;;;16.96;88.26;100333.00;5049501;28;20082;-78
2023/10/15 01:16:10;;;;;;;13.25;4.60;;;;;;;17.06;88.52;100359.97;5049088;28;20044;-79
2023/10/15 01:18:36;;;;;;;13.93;4.13;;;;;;;17.06;88.72;100368.13;5049331;28;20444;-78
2023/10/15 01:21:04;;;;;;;10.90;4.10;;;;;;;16.99;88.83;100348.97;5049495;28;20033;-77
2023/10/15 01:26:23;;;;;;;13.88;5.35;;;;;;;17.00;89.82;100356.06;5049308;28;20083;-78
2023/10/15 01:28:51;;;;;;;7.57;4.63;;;;;;;16.99;89.62;100345.38;5049322;28;20502;-78
2023/10/15 01:31:17;;;;;;;15.52;5.18;;;;;;;16.96;89.79;100340.28;5049407;28;20064;-78
2023/10/15 01:33:46;;;;;;;14.20;6.07;;;;;;;16.84;89.86;100328.94;5049004;28;20029;-76
2023/10/15 01:36:19;;;;;;;12.15;5.72;;;;;;;16.96;89.88;100351.16;5049161;28;20068;-78
2023/10/15 01:38:44;;;;;;;11.63;5.18;;;;;;;16.91;89.45;100351.66;5049128;28;20516;-77
2023/10/15 01:41:13;;;;;;;17.95;5.00;;;;;;;16.89;89.17;100345.56;5049079;28;20051;-79
2023/10/15 01:43:40;;;;;;;7.85;4.93;;;;;;;16.95;89.16;100366.59;5049638;28;20064;-77
2023/10/15 01:46:10;;;;;;;27.98;7.10;;;;;;;16.86;89.38;100348.63;5049284;28;20059;-77
2023/10/15 01:48:40;;;;;;;9.20;4.50;;;;;;;16.85;89.59;100338.78;5049157;28;20493;-78
2023/10/15 01:51:06;;;;;;;10.90;4.55;;;;;;;16.94;89.57;100356.75;5048966;28;20033;-76
2023/10/15 01:53:39;;;;;;;11.85;4.80;;;;;;;16.88;89.46;100345.75;5050292;28;20192;-78
2023/10/15 01:56:06;;;;;;;17.35;5.50;;;;;;;16.78;89.46;100327.78;5053050;28;20116;-79
2023/10/15 01:58:32;;;;;;;10.52;4.07;;;;;;;16.87;89.37;100336.75;5052743;28;20096;-76
2023/10/15 02:01:13;;;;;;;22.70;8.20;;;;;;;16.91;89.58;100357.09;5053523;28;20033;-78
2023/10/15 02:03:41;;;;;;;9.98;4.35;;;;;;;16.78;89.55;100332.34;5052833;28;20457;-78
2023/10/15 02:06:07;;;;;;;18.88;5.93;;;;;;;16.67;89.42;100324.53;5052630;28;20032;-78
2023/10/15 02:08:39;;;;;;;12.85;5.55;;;;;;;16.84;89.67;100348.81;5052681;28;20116;-78
2023/10/15 02:11:15;;;;;;;11.45;5.60;;;;;;;16.86;89.16;100343.19;5052580;28;20028;-78
2023/10/15 02:13:45;;;;;;;14.20;5.03;;;;;;;16.85;89.14;100355.91;5052434;28;20140;-78
2023/10/15 02:16:16;;;;;;;18.95;4.57;;;;;;;16.84;88.96;100350.69;5052352;28;20071;-78
2023/10/15 02:18:45;;;;;;;21.63;4.80;;;;;;;16.81;88.94;100342.88;5051940;28;20463;-77
2023/10/15 02:21:16;;;;;;;16.45;5.80;;;;;;;16.79;88.93;100347.59;5052336;28;20090;-77
2023/10/15 02:23:51;;;;;;;12.20;4.60;;;;;;;16.69;88.90;100330.66;5052052;28;20025;-77
2023/10/15 02:26:18;;;;;;;10.15;4.90;;;;;;;16.78;88.88;100338.63;5052615;28;20059;-77
2023/10/15 02:28:44;;;;;;;10.48;5.30;;;;;;;16.75;89.15;100338.13;5051939;28;20033;-77
2023/10/15 02:33:35;;;;;;;12.07;7.13;;;;;;;16.68;89.54;100326.25;5052486;28;20067;-77
2023/10/15 02:36:04;;;;;;;17.92;6.07;;;;;;;16.65;89.77;100324.72;5034135;28;20064;-78
2023/10/15 02:38:34;;;;;;;12.95;5.57;;;;;;;16.72;89.92;100327.59;5052033;28;20033;-81
2023/10/15 02:41:04;;;;;;;15.18;5.38;;;;;;;16.66;90.19;100331.88;5051900;28;20071;-78
2023/10/15 02:43:30;;;;;;;12.85;6.47;;;;;;;16.69;90.27;100333.38;5034073;28;20037;-77
2023/10/15 02:48:41;;;;;;;16.90;4.40;;;;;;;16.57;90.11;100302.16;5051730;28;20040;-77
2023/10/15 02:51:08;;;;;;;11.57;4.82;;;;;;;16.66;90.54;100322.88;5051603;28;20029;-77
2023/10/15 02:53:36;;;;;;;15.93;4.57;;;;;;;16.55;90.83;100323.19;5017062;28;20033;-77
2023/10/15 02:56:10;;;;;;;11.13;5.03;;;;;;;16.55;91.08;100315.03;5051347;28;20083;-78
2023/10/15 02:58:36;;;;;;;9.52;5.35;;;;;;;16.65;90.96;100321.16;5018695;28;20127;-78
2023/10/15 03:01:18;;;;;;;9.70;5.60;;;;;;;16.66;91.47;100318.28;5051411;28;20045;-77
2023/10/15 03:03:49;;;;;;;13.50;5.57;;;;;;;16.66;91.25;100325.56;5051571;28;20029;-77
2023/10/15 03:09:11;;;;;;;7.28;4.88;;;;;;;16.70;91.67;100313.34;4969965;28;20567;-79
2023/10/15 03:11:38;;;;;;;12.27;5.45;;;;;;;16.71;91.05;100315.91;4970222;28;20125;-78
2023/10/15 03:14:04;;;;;;;8.43;5.32;;;;;;;16.67;90.76;100305.53;4973818;28;20077;-77
2023/10/15 03:16:32;;;;;;;15.25;6.07;;;;;;;16.59;90.88;100308.25;4969762;28;20034;-78
2023/10/15 03:19:07;;;;;;;20.73;5.60;;;;;;;16.61;90.66;100308.94;4969668;28;20030;-77
2023/10/15 03:21:37;;;;;;;12.00;5.25;;;;;;;16.63;90.70;100302.34;4969896;28;20034;-76
2023/10/15 03:24:04;;;;;;;7.97;4.35;;;;;;;16.60;90.88;100301.81;4969715;28;20109;-78
2023/10/15 03:26:32;;;;;;;8.63;5.13;;;;;;;16.53;90.81;100306.19;4969877;28;20038;-79
2023/10/15 03:28:58;;;;;;;7.40;4.20;;;;;;;16.53;91.42;100300.78;4969584;28;20116;-78
2023/10/15 03:31:27;;;;;;;8.30;4.53;;;;;;;16.57;91.23;100296.75;4969501;28;20137;-76
2023/10/15 03:36:31;;;;;;;19.88;7.18;;;;;;;16.45;91.90;100284.50;4969609;28;20046;-77
2023/10/15 03:38:58;;;;;;;15.25;7.55;;;;;;;16.58;91.79;100312.84;4969578;28;20097;-77
2023/10/15 03:41:29;;;;;;;11.98;5.57;;;;;;;16.57;92.23;100303.03;4969747;28;20035;-76
2023/10/15 03:44:01;;;;;;;10.77;4.47;;;;;;;16.58;92.57;100292.97;4969634;28;20027;-77
2023/10/15 03:46:33;;;;;;;20.20;6.53;;;;;;;16.60;92.70;100296.41;5012076;28;20045;-77
2023/10/15 03:48:59;;;;;;;32.90;11.43;;;;;;;16.61;92.60;100303.50;5030905;28;20037;-78
2023/10/15 03:51:24;;;;;;;24.48;9.55;;;;;;;16.61;92.79;100308.94;5030547;28;20045;-77
2023/10/15 03:53:50;;;;;;;29.70;7.90;;;;;;;16.64;92.94;100300.44;5030538;28;20044;-77
2023/10/15 03:56:27;;;;;;;14.85;8.18;;;;;;;16.65;92.75;100294.00;5030372;28;20037;-78
2023/10/15 03:58:55;;;;;;;38.15;22.23;;;;;;;16.63;92.67;100294.19;5030412;28;20037;-78
2023/10/15 04:01:22;;;;;;;11.95;6.03;;;;;;;16.66;92.66;100296.56;5027937;28;20065;-78
2023/10/15 04:03:47;;;;;;;17.00;6.55;;;;;;;16.57;92.28;100269.59;5030265;28;20021;-77
2023/10/15 04:06:14;;;;;;;23.60;9.73;;;;;;;16.64;93.04;100286.88;5030467;28;20037;-77
2023/10/15 04:08:59;;;;;;;25.08;9.32;;;;;;;16.68;93.19;100285.50;5030019;28;20579;-77
2023/10/15 04:11:29;;;;;;;13.98;6.40;;;;;;;16.67;93.56;100283.81;5030410;28;20044;-76
2023/10/15 04:13:56;;;;;;;15.63;6.57;;;;;;;16.63;93.77;100279.75;5030236;28;20494;-78
2023/10/15 04:16:22;;;;;;;12.00;6.55;;;;;;;16.59;93.31;100256.69;5029424;28;20030;-77
2023/10/15 04:18:48;;;;;;;13.80;6.47;;;;;;;16.74;93.41;100282.09;5030124;28;20029;-76
2023/10/15 04:21:17;;;;;;;13.48;5.50;;;;;;;16.73;92.77;100274.97;5029935;28;20438;-78
2023/10/15 04:23:49;;;;;;;10.43;5.25;;;;;;;16.46;92.78;100240.03;5029849;28;20055;-77
2023/10/15 04:26:14;;;;;;;10.68;5.70;;;;;;;16.74;92.81;100273.97;5030001;28;20139;-76
2023/10/15 04:28:42;;;;;;;16.23;5.78;;;;;;;16.64;92.72;100257.00;5030062;28;20489;-78
2023/10/15 04:31:21;;;;;;;24.52;7.30;;;;;;;16.79;92.42;100286.00;5047849;28;20055;-77
2023/10/15 04:33:50;;;;;;;35.58;13.30;;;;;;;16.63;92.46;100253.47;5049797;28;20025;-77
2023/10/15 04:36:16;;;;;;;39.03;10.80;;;;;;;16.75;92.31;100279.22;5049112;28;20037;-77
2023/10/15 04:38:41;;;;;;;32.67;8.05;;;;;;;16.76;92.10;100277.34;5049480;28;20499;-76
2023/10/15 04:41:07;;;;;;;47.03;9.48;;;;;;;16.76;91.91;100280.06;5049520;28;20025;-77
2023/10/15 04:43:41;;;;;;;32.55;8.68;;;;;;;16.54;91.82;100254.50;5030513;28;20106;-76
2023/10/15 04:46:25;;;;;;;20.98;8.73;;;;;;;16.64;91.71;100274.13;5050022;28;20033;-77
2023/10/15 04:48:51;;;;;;;35.67;9.15;;;;;;;16.66;91.57;100274.84;5049239;28;20052;-77
2023/10/15 04:51:16;;;;;;;26.25;8.50;;;;;;;16.47;91.41;100241.72;5013909;28;20077;-77
2023/10/15 04:53:48;;;;;;;31.02;9.02;;;;;;;16.65;91.44;100272.28;5049730;28;20025;-77
2023/10/15 04:56:14;;;;;;;30.13;13.13;;;;;;;16.66;91.78;100276.69;5049498;28;20461;-77
2023/10/15 04:58:40;;;;;;;25.42;7.45;;;;;;;16.62;91.72;100268.03;5050054;28;20094;-77
2023/10/15 05:01:07;;;;;;;21.77;7.30;;;;;;;16.65;91.87;100272.28;5049455;28;20075;-77
2023/10/15 05:03:33;;;;;;;46.35;11.50;;;;;;;16.63;92.28;100266.19;5049568;28;20144;-78
2023/10/15 05:06:03;;;;;;;46.92;9.98;;;;;;;16.71;92.60;100277.03;5048896;28;20028;-77
2023/10/15 05:08:29;;;;;;;31.90;8.98;;;;;;;16.67;92.67;100267.50;5046537;28;20033;-77
2023/10/15 05:10:54;;;;;;;25.20;7.72;;;;;;;16.69;92.77;100269.06;5044532;28;20477;-76
2023/10/15 05:13:20;;;;;;;35.15;7.43;;;;;;;16.76;92.94;100266.47;5049819;28;20033;-80
2023/10/15 05:15:49;;;;;;;23.77;8.77;;;;;;;16.81;92.59;100272.25;5050758;28;20044;-79
2023/10/15 05:18:15;;;;;;;29.98;8.73;;;;;;;16.80;92.65;100265.97;5069603;28;20031;-79
2023/10/15 05:20:42;;;;;;;36.63;8.65;;;;;;;16.84;92.95;100270.03;5070042;28;20040;-77
2023/10/15 05:23:09;;;;;;;22.15;8.98;;;;;;;16.92;92.75;100258.28;5069594;28;20056;-77
2023/10/15 05:25:34;;;;;;;39.65;14.35;;;;;;;16.85;93.00;100262.72;5069343;28;20028;-76
2023/10/15 05:28:00;;;;;;;35.67;11.30;;;;;;;16.78;93.56;100240.84;5070080;28;20127;-76
2023/10/15 05:30:28;;;;;;;24.10;10.68;;;;;;;17.03;93.99;100267.94;5060993;28;20151;-77
2023/10/15 05:32:54;;;;;;;22.40;9.07;;;;;;;17.12;94.39;100269.63;5053610;28;20108;-78
2023/10/15 05:35:19;;;;;;;54.42;20.63;;;;;;;17.17;94.14;100261.78;5053794;28;20033;-77
2023/10/15 05:37:46;;;;;;;36.72;13.00;;;;;;;17.27;93.92;100265.13;5053384;28;20029;-79
2023/10/15 05:40:17;;;;;;;44.42;11.35;;;;;;;17.32;94.33;100266.28;5053750;28;20067;-81
2023/10/15 05:42:43;;;;;;;30.63;10.48;;;;;;;17.44;94.01;100258.59;5053653;28;20039;-77
2023/10/15 05:45:09;;;;;;;30.08;10.95;;;;;;;17.52;94.17;100260.44;5053274;28;20064;-79
2023/10/15 05:47:35;;;;;;;36.70;10.68;;;;;;;17.64;94.04;100269.91;5052778;28;20060;-77
2023/10/15 05:50:01;;;;;;;45.45;9.93;;;;;;;17.70;93.89;100252.88;5053325;28;20044;-77
2023/10/15 05:52:26;;;;;;;28.15;10.30;;;;;;;17.70;93.84;100237.41;5053079;28;20033;-76
2023/10/15 05:54:53;;;;;;;21.65;9.45;;;;;;;17.80;93.57;100231.69;5052854;28;20021;-76
2023/10/15 05:57:22;;;;;;;43.75;11.25;;;;;;;18.09;93.64;100253.59;5052721;28;20064;-78
2023/10/15 05:59:49;;;;;;;36.55;12.73;;;;;;;18.19;93.43;100254.22;5052889;28;20025;-76
2023/10/15 06:02:14;;;;;;;49.92;16.58;;;;;;;18.34;93.10;100251.53;5053130;28;20021;-81
2023/10/15 06:04:42;;;;;;;18.98;9.10;;;;;;;18.44;92.43;100247.50;5052734;28;20040;-76
2023/10/15 06:07:08;;;;;;;18.80;8.18;;;;;;;18.60;92.03;100248.41;5053064;28;20037;-77
2023/10/15 06:09:36;;;;;;;12.88;5.40;;;;;;;18.53;92.13;100242.03;5052730;28;20051;-80
2023/10/15 06:12:03;;;;;;;16.05;5.57;;;;;;;18.59;93.07;100244.00;5035118;28;20025;-82
2023/10/15 06:14:28;;;;;;;15.18;5.60;;;;;;;18.60;93.40;100218.44;5052760;28;20401;-82
2023/10/15 06:16:58;;;;;;;13.63;4.82;;;;;;;18.70;93.27;100233.50;5053265;28;20029;-79
2023/10/15 06:19:24;;;;;;;12.32;5.80;;;;;;;18.65;93.36;100211.44;5052473;28;20452;-77
2023/10/15 06:21:50;;;;;;;32.83;7.07;;;;;;;18.87;93.15;100236.88;5052815;28;20083;-80
2023/10/15 06:24:15;;;;;;;17.77;6.10;;;;;;;18.89;92.70;100219.31;5052382;28;20037;-77
2023/10/15 06:26:41;;;;;;;18.05;5.15;;;;;;;19.07;91.83;100243.47;5051979;28;20037;-78
2023/10/15 06:29:07;;;;;;;16.05;5.78;;;;;;;19.00;91.25;100232.47;5033495;28;20052;-76
2023/10/15 06:31:32;;;;;;;18.40;4.25;;;;;;;19.00;91.28;100226.16;5052024;28;20060;-78
2023/10/15 06:33:58;;;;;;;36.53;5.70;;;;;;;19.16;91.11;100242.31;5052193;28;20516;-78
2023/10/15 06:36:23;;;;;;;25.73;5.82;;;;;;;19.12;90.90;100227.38;5051908;28;20028;-79
2023/10/15 06:38:51;;;;;;;23.13;5.47;;;;;;;19.25;90.78;100233.00;5052464;28;20021;-77
2023/10/15 06:41:17;;;;;;;14.27;5.15;;;;;;;19.21;90.66;100228.97;5051579;28;20033;-78
2023/10/15 06:43:42;;;;;;;13.35;4.80;;;;;;;19.26;90.09;100236.59;5034028;28;20029;-77
2023/10/15 06:46:09;;;;;;;11.20;4.03;;;;;;;19.20;90.34;100243.66;5051675;28;20033;-79
2023/10/15 06:48:37;;;;;;;31.77;12.30;;;;;;;19.27;90.49;100250.00;5034145;28;20428;-77
2023/10/15 06:51:07;;;;;;;19.08;7.93;;;;;;;19.28;89.93;100246.25;5052161;28;20040;-77
2023/10/15 06:53:34;;;;;;;16.65;5.25;;;;;;;19.22;88.95;100230.66;5051836;28;20108;-77
2023/10/15 06:56:06;;;;;;;16.15;5.15;;;;;;;19.35;89.05;100233.56;5051759;28;20037;-81
2023/10/15 06:58:41;;;;;;;13.93;4.40;;;;;;;19.41;88.89;100243.75;5052046;28;20182;-77
2023/10/15 07:01:07;;;;;;;23.63;6.68;;;;;;;19.49;89.59;100249.06;5051587;28;20043;-79
2023/10/15 07:03:33;;;;;;;9.93;4.43;;;;;;;19.47;89.67;100233.94;5051624;28;20025;-78
2023/10/15 07:05:59;;;;;;;9.15;4.10;;;;;;;19.42;88.84;100230.91;5052622;28;20056;-77
2023/10/15 07:08:25;;;;;;;9.20;4.22;;;;;;;19.47;89.22;100229.34;5051383;28;20466;-79
2023/10/15 07:10:50;;;;;;;24.33;5.32;;;;;;;19.49;89.57;100216.34;5051096;28;20481;-78
2023/10/15 07:13:18;;;;;;;26.75;5.43;;;;;;;19.51;89.25;100225.16;5051068;28;20033;-78
2023/10/15 07:15:45;;;;;;;13.00;4.55;;;;;;;19.43;89.13;100211.66;5033356;28;20036;-79
2023/10/15 07:18:11;;;;;;;16.30;3.63;;;;;;;19.42;88.66;100199.03;5032944;28;20493;-79
2023/10/15 07:20:37;;;;;;;20.38;4.95;;;;;;;19.52;88.68;100215.97;5051402;28;20036;-79
2023/10/15 07:23:02;;;;;;;13.40;4.45;;;;;;;19.46;88.77;100205.81;5051035;28;20025;-79
2023/10/15 07:25:28;;;;;;;19.75;3.95;;;;;;;19.61;88.65;100216.69;5050911;28;20059;-79
2023/10/15 07:27:56;;;;;;;19.50;4.88;;;;;;;19.59;88.32;100191.47;5051085;28;20032;-78
2023/10/15 07:30:21;;;;;;;11.93;3.83;;;;;;;19.59;88.52;100179.72;5050469;28;20411;-77
2023/10/15 07:32:47;;;;;;;15.85;4.45;;;;;;;19.65;85.42;100206.22;5051134;28;20025;-78
2023/10/15 07:35:14;;;;;;;17.42;3.75;;;;;;;19.71;84.80;100208.19;5050669;28;20053;-79
2023/10/15 07:37:40;;;;;;;19.67;4.65;;;;;;;19.80;84.34;100201.56;5050781;28;20063;-79
2023/10/15 07:40:14;;;;;;;22.65;5.15;;;;;;;19.84;82.67;100198.25;5050889;28;20033;-78
2023/10/15 07:42:40;;;;;;;10.63;3.95;;;;;;;19.57;79.27;100160.81;5050536;28;20028;-77
2023/10/15 07:45:05;;;;;;;16.17;4.05;;;;;;;19.90;78.16;100196.63;5050488;28;20029;-77
2023/10/15 07:47:31;;;;;;;11.63;3.72;;;;;;;20.00;77.77;100192.50;5050900;28;20115;-78
2023/10/15 07:50:18;;;;;;;14.38;3.60;;;;;;;19.93;76.93;100188.03;5050804;28;20492;-78
2023/10/15 07:52:44;;;;;;;17.10;4.25;;;;;;;20.05;76.98;100191.94;5049740;28;20028;-79
2023/10/15 07:55:13;;;;;;;11.38;3.53;;;;;;;20.09;76.61;100185.03;5032357;28;20498;-78
2023/10/15 07:57:39;;;;;;;23.30;4.38;;;;;;;20.16;77.05;100180.47;5032735;28;20025;-78
2023/10/15 08:00:15;;;;;;;12.15;4.22;;;;;;;20.01;77.05;100130.56;5050522;28;20024;-78
2023/10/15 08:02:49;;;;;;;17.30;5.25;;;;;;;20.40;76.39;100182.78;5050387;28;20025;-78
2023/10/15 08:05:15;;;;;;;13.13;4.07;;;;;;;20.45;74.75;100185.78;5050338;28;20029;-78
2023/10/15 08:07:41;;;;;;;13.77;3.90;;;;;;;20.43;74.03;100181.53;5050001;28;20560;-80
2023/10/15 08:10:08;;;;;;;21.75;4.75;;;;;;;20.55;73.27;100175.34;5050210;28;20025;-78
2023/10/15 08:12:35;;;;;;;9.27;3.60;;;;;;;20.72;72.40;100177.75;5049498;28;20036;-77
2023/10/15 08:15:00;;;;;;;16.35;4.13;;;;;;;20.76;72.22;100179.06;5049693;28;20433;-79
2023/10/15 08:17:26;;;;;;;23.17;13.48;;;;;;;20.79;71.03;100181.38;5049953;28;20064;-81
2023/10/15 08:19:53;;;;;;;9.25;3.95;;;;;;;20.78;71.69;100171.47;5049656;28;20074;-77
2023/10/15 08:22:19;;;;;;;18.52;4.47;;;;;;;21.01;70.41;100180.22;5049857;28;20028;-80
2023/10/15 08:24:45;;;;;;;11.00;3.15;;;;;;;20.92;69.87;100165.03;5049911;28;20025;-78
2023/10/15 08:27:13;;;;;;;20.08;3.47;;;;;;;20.84;70.18;100173.41;5031780;28;20059;-79
2023/10/15 08:29:40;;;;;;;8.18;3.92;;;;;;;21.03;70.47;100173.53;5049403;28;20056;-78
2023/10/15 08:32:06;;;;;;;15.57;3.60;;;;;;;21.13;69.83;100181.34;5050024;28;20110;-78
2023/10/15 08:34:32;;;;;;;17.63;4.53;;;;;;;21.17;69.46;100168.97;5050156;28;20025;-78
2023/10/15 08:36:57;;;;;;;19.25;4.10;;;;;;;21.10;69.38;100151.69;5050437;28;20094;-78
2023/10/15 08:39:23;;;;;;;9.68;3.35;;;;;;;21.21;68.59;100145.63;5049390;28;20104;-81
2023/10/15 08:41:51;;;;;;;27.00;5.70;;;;;;;21.24;68.38;100149.84;5049375;28;20460;-78
2023/10/15 08:44:18;;;;;;;9.10;3.50;;;;;;;21.35;67.75;100138.31;5049647;28;20037;-78
2023/10/15 08:46:45;;;;;;;21.02;4.13;;;;;;;21.30;68.09;100158.09;5050152;28;20098;-77
2023/10/15 08:49:14;;;;;;;7.28;3.70;;;;;;;20.90;68.16;100096.06;5049732;28;20052;-81
2023/10/15 08:51:42;;;;;;;41.38;5.85;;;;;;;21.37;67.88;100148.00;5050098;28;20096;-78
2023/10/15 08:54:11;;;;;;;16.85;3.70;;;;;;;21.43;67.18;100157.28;5049841;28;20036;-81
2023/10/15 08:56:37;;;;;;;11.82;3.80;;;;;;;21.54;67.52;100153.94;5049081;28;20191;-78
2023/10/15 08:59:04;;;;;;;13.27;3.25;;;;;;;21.61;66.44;100139.22;5049848;28;20116;-80
2023/10/15 09:01:32;;;;;;;21.05;3.88;;;;;;;21.55;66.42;100134.59;5048352;28;20065;-78
2023/10/15 09:03:57;;;;;;;71.32;11.07;;;;;;;21.59;66.44;100129.50;5033702;28;20460;-79
2023/10/15 09:06:24;;;;;;;15.00;3.90;;;;;;;21.69;65.76;100125.34;5053693;28;20072;-79
2023/10/15 09:08:51;;;;;;;15.57;3.55;;;;;;;21.77;65.18;100121.56;5035653;28;20033;-80
2023/10/15 09:11:17;;;;;;;18.40;4.10;;;;;;;21.37;65.21;100090.56;5053657;28;20083;-80
2023/10/15 09:13:49;;;;;;;24.30;4.45;;;;;;;21.77;65.78;100138.00;5035261;28;20045;-78
2023/10/15 09:16:15;;;;;;;25.05;4.38;;;;;;;21.84;65.63;100127.88;5053222;28;20021;-79
2023/10/15 09:18:43;;;;;;;14.35;4.45;;;;;;;21.91;65.23;100128.75;5053650;28;20040;-78
2023/10/15 09:21:09;;;;;;;11.95;5.53;;;;;;;21.88;64.93;100128.28;5053528;28;20029;-78
2023/10/15 09:23:36;;;;;;;7.63;3.72;;;;;;;21.92;65.14;100124.13;5053845;28;20105;-78
2023/10/15 09:26:06;;;;;;;15.35;4.25;;;;;;;21.90;64.89;100110.63;5053434;28;20116;-78
2023/10/15 09:28:35;;;;;;;23.27;4.38;;;;;;;21.99;64.68;100089.34;5054082;28;20033;-77
2023/10/15 09:31:06;;;;;;;8.15;3.25;;;;;;;22.08;64.42;100096.28;5054703;28;20083;-79
2023/10/15 09:33:33;;;;;;;13.50;3.95;;;;;;;22.18;63.69;100089.34;5053822;28;20115;-80
2023/10/15 09:36:02;;;;;;;9.50;4.43;;;;;;;22.28;63.34;100086.16;5054302;28;20055;-79
2023/10/15 09:38:31;;;;;;;8.40;4.25;;;;;;;22.31;62.92;100085.75;5053089;28;20033;-78
2023/10/15 09:40:58;;;;;;;12.55;3.78;;;;;;;22.42;62.83;100097.91;5036099;28;20412;-80
2023/10/15 09:43:31;;;;;;;14.55;3.70;;;;;;;22.35;63.15;100106.19;5054658;28;20059;-78
2023/10/15 09:45:58;;;;;;;16.15;3.90;;;;;;;22.24;63.50;100101.34;5053628;28;20090;-77
2023/10/15 09:48:25;;;;;;;15.57;3.92;;;;;;;22.21;63.66;100091.66;5053185;28;20125;-78
2023/10/15 09:50:57;;;;;;;10.57;3.38;;;;;;;22.23;63.39;100091.47;5053106;28;20036;-79
2023/10/15 09:53:28;;;;;;;14.98;4.20;;;;;;;22.00;63.72;100060.91;5053092;28;20029;-80
2023/10/15 09:55:55;;;;;;;10.27;4.75;;;;;;;22.07;63.42;100061.75;5010458;28;20073;-79
2023/10/15 09:58:22;;;;;;;13.57;4.32;;;;;;;22.37;63.13;100073.91;5010410;28;20421;-78
2023/10/15 10:00:59;;;;;;;18.45;3.95;;;;;;;22.46;62.68;100072.63;5010548;28;20153;-79
2023/10/15 10:03:29;;;;;;;16.63;4.10;;;;;;;22.54;62.36;100079.75;5009957;28;20045;-77
2023/10/15 10:06:37;;;;;;;11.55;4.70;;;;;;;22.52;62.19;100074.50;5010626;28;20042;-78
2023/10/15 10:09:29;;;;;;;6.88;3.83;;;;;;;22.48;63.01;100084.22;4952136;29;20547;-79
2023/10/15 10:12:07;;;;;;;;;;;;;;;22.57;63.28;100077.44;4952494;29;20055;-77
2023/10/15 10:14:51;;;;;;;13.98;3.95;;;;;;;22.53;62.97;100084.44;4951742;28;20335;-79
2023/10/15 10:17:20;;;;;;;6.95;3.53;;;;;;;22.45;62.41;100070.94;4951770;28;20519;-78
2023/10/15 10:19:53;;;;;;;19.95;4.85;;;;;;;22.05;62.29;100015.41;4952071;29;20058;-80
2023/10/15 10:22:29;;;;;;;19.60;4.13;;;;;;;22.41;62.38;100064.22;4951907;29;20507;-76
2023/10/15 10:25:01;;;;;;;7.95;3.25;;;;;;;22.46;62.04;100056.19;4951735;29;20422;-80
2023/10/15 10:27:27;;;;;;;9.02;3.10;;;;;;;22.50;62.06;100035.53;4965727;28;20038;-78
2023/10/15 10:29:53;;;;;;;24.52;5.53;;;;;;;22.56;62.07;100031.91;4970722;28;20053;-78
2023/10/15 10:32:21;;;;;;;16.35;3.85;;;;;;;22.79;61.68;100045.13;4970805;28;20146;-79
2023/10/15 10:35:18;;;;;;;27.73;5.82;;;;;;;22.97;60.43;100041.66;4970599;28;20034;-79
2023/10/15 10:38:03;;;;;;;23.17;5.30;;;;;;;23.11;60.43;100044.13;4971469;28;20039;-78
2023/10/15 10:40:51;;;;;;;19.38;4.50;;;;;;;23.11;60.22;100035.03;4971027;28;20046;-78
2023/10/15 10:43:21;;;;;;;9.90;3.78;;;;;;;23.22;59.92;100035.19;4970889;28;20138;-77
2023/10/15 10:45:59;;;;;;;17.73;4.15;;;;;;;23.34;59.34;100032.56;5011822;28;20070;-78
2023/10/15 10:48:29;;;;;;;11.25;3.50;;;;;;;23.31;59.82;100016.53;5034098;28;20471;-78
2023/10/15 10:51:19;;;;;;;6.55;3.35;;;;;;;23.46;60.19;100018.97;5051693;28;20021;-79
2023/10/15 10:53:57;;;;;;;12.80;4.22;;;;;;;23.54;60.00;100014.09;5051744;28;20111;-78
2023/10/15 10:56:38;;;;;;;8.60;4.22;;;;;;;23.56;59.89;99998.22;5051782;28;20033;-79
2023/10/15 10:59:03;;;;;;;13.05;3.65;;;;;;;23.69;58.99;100008.25;5053621;28;20028;-78
2023/10/15 11:01:33;;;;;;;9.77;4.07;;;;;;;23.38;59.04;99972.56;5051800;28;20084;-79
2023/10/15 11:03:59;;;;;;;11.25;4.22;;;;;;;23.45;58.76;99966.00;5051682;28;20558;-78
2023/10/15 11:06:26;;;;;;;13.57;4.53;;;;;;;23.63;58.15;99988.03;5051450;28;20082;-79
2023/10/15 11:08:52;;;;;;;21.98;4.03;;;;;;;23.60;58.54;99991.22;5051177;28;20036;-78
2023/10/15 11:11:19;;;;;;;14.85;4.22;;;;;;;23.53;57.83;99981.34;5052003;28;20028;-77
2023/10/15 11:13:47;;;;;;;12.98;4.65;;;;;;;23.58;57.58;99989.75;5033559;28;20029;-78
2023/10/15 11:16:13;;;;;;;24.10;4.35;;;;;;;23.76;57.55;99992.53;5050516;28;20032;-78
2023/10/15 11:18:39;;;;;;;9.30;4.28;;;;;;;23.54;57.01;99969.31;5051025;28;20033;-78
2023/10/15 11:21:07;;;;;;;14.55;4.63;;;;;;;23.69;57.56;99998.09;5050751;28;20031;-79
2023/10/15 11:23:33;;;;;;;7.88;4.00;;;;;;;23.60;56.77;99993.97;5051000;28;20112;-78
2023/10/15 11:25:59;;;;;;;14.80;3.35;;;;;;;23.65;57.30;99983.13;5049607;28;20029;-78
2023/10/15 11:28:24;;;;;;;12.13;4.53;;;;;;;23.77;57.43;99991.47;5050201;28;20036;-78
2023/10/15 11:30:51;;;;;;;19.58;7.05;;;;;;;23.83;57.44;99996.91;5049801;28;20048;-78
2023/10/15 11:33:17;;;;;;;11.05;3.65;;;;;;;23.88;57.09;99984.41;5050651;28;20084;-78
2023/10/15 11:35:53;;;;;;;15.48;3.92;;;;;;;23.82;56.71;99967.75;5050286;28;20051;-78
2023/10/15 11:38:20;;;;;;;11.75;4.00;;;;;;;24.05;55.94;99986.34;5050214;28;20051;-78
2023/10/15 11:40:46;;;;;;;8.05;3.95;;;;;;;23.95;56.31;100001.66;5050508;28;20086;-78
2023/10/15 11:43:17;;;;;;;7.15;4.32;;;;;;;23.72;56.70;99997.66;5050529;28;20021;-78